Polis 139 9970 — SFC7681 — position and weather

sailwx.info

Track history (hours):
 
Tides and Currents Weather Stations Pressure Air Temp Water Temp Dewpoint Dewpoint Depression Visibility Wind Speed Wind Dir Waves Ship Positions

Polis 139 9970

Last reported at 2016-Aug-25 07:24 UTC. Time now 2016-Aug-25 09:48 UTC.
Position N 59°20' E 018°05'.

Length 16 m.

Type: Law enforcement. MMSI: 265565250.

Date/timePositionNaut miles runAvg speedWind from/ knotsBaromVisibWave heightAir tempDewpointWater temp
2016-Aug-25 07:24N 59°20' E 018°05'0 0.1
2016-Aug-25 06:23N 59°20' E 018°04'0 0.0
2016-Aug-25 04:33N 59°20' E 018°04'0 0.0
2016-Aug-25 03:34N 59°20' E 018°05'0 0.1
2016-Aug-25 02:34N 59°20' E 018°05'0 0.1
2016-Aug-25 01:33N 59°20' E 018°05'0 0.0
2016-Aug-25 00:33N 59°20' E 018°05'0 0.0
2016-Aug-24 23:33N 59°20' E 018°04'0 0.0
2016-Aug-24 22:33N 59°20' E 018°05'0 0.0
2016-Aug-24 21:33N 59°20' E 018°05'0 0.0
2016-Aug-24 20:33N 59°20' E 018°04'0 0.1
2016-Aug-24 19:33N 59°20' E 018°05'0 0.0
2016-Aug-24 18:33N 59°20' E 018°05'0 0.0
2016-Aug-24 17:33N 59°20' E 018°05'0 0.0
2016-Aug-24 16:33N 59°20' E 018°05'0 0.0
2016-Aug-24 15:33N 59°20' E 018°05'0 0.0
2016-Aug-24 14:33N 59°20' E 018°05'0 0.0
2016-Aug-24 13:33N 59°20' E 018°05'0 0.0
2016-Aug-24 12:33N 59°20' E 018°05'0 0.0
2016-Aug-24 11:33N 59°20' E 018°05'0 0.0
2016-Aug-24 10:34N 59°20' E 018°05'0 0.0
2016-Aug-24 09:33N 59°20' E 018°05'0 0.0
2016-Aug-24 08:33N 59°20' E 018°04'0 0.1
2016-Aug-24 07:33N 59°20' E 018°05'0 0.2
2016-Aug-24 06:33N 59°20' E 018°05'0 0.0
2016-Aug-24 04:33N 59°20' E 018°05'0 0.1
2016-Aug-24 03:33N 59°20' E 018°05'0 0.0
2016-Aug-24 02:33N 59°20' E 018°05'0 0.0
2016-Aug-24 01:33N 59°20' E 018°05'0 0.0
2016-Aug-24 00:33N 59°20' E 018°05'0 0.1
2016-Aug-23 23:33N 59°20' E 018°05'2 1.8
2016-Aug-23 22:33N 59°19' E 018°08'1 0.9
2016-Aug-23 21:33N 59°19' E 018°10'0 0.0
2016-Aug-23 20:33N 59°19' E 018°10'0 0.0
2016-Aug-23 19:33N 59°19' E 018°10'0 0.0
2016-Aug-23 18:33N 59°19' E 018°10'0 0.0
2016-Aug-23 17:33N 59°19' E 018°10'0 0.0
2016-Aug-23 16:33N 59°19' E 018°10'0 0.0
2016-Aug-23 15:33N 59°19' E 018°10'0 0.0
2016-Aug-23 14:33N 59°19' E 018°10'0 0.0
2016-Aug-23 13:33N 59°19' E 018°10'0 0.0
2016-Aug-23 12:33N 59°19' E 018°10'0 0.0
2016-Aug-23 11:32N 59°19' E 018°10'0 0.0
2016-Aug-23 10:33N 59°19' E 018°10'0 0.0
2016-Aug-23 09:33N 59°19' E 018°10'0 0.0
2016-Aug-23 08:33N 59°19' E 018°10'0 0.0
2016-Aug-23 07:33N 59°19' E 018°10'0 0.0
2016-Aug-23 06:33N 59°19' E 018°10'0 0.0
2016-Aug-23 05:33N 59°19' E 018°10'0 0.0
2016-Aug-23 04:33N 59°19' E 018°10'0 0.0
2016-Aug-23 03:33N 59°19' E 018°10'0 0.0
2016-Aug-23 02:33N 59°19' E 018°10'0 0.0
2016-Aug-23 01:33N 59°19' E 018°10'0 0.0
2016-Aug-23 00:33N 59°19' E 018°10'0 0.0
2016-Aug-22 23:33N 59°19' E 018°10'0 0.0
2016-Aug-22 22:33N 59°19' E 018°10'0 0.0
2016-Aug-22 21:33N 59°19' E 018°10'0 0.0
2016-Aug-22 20:33N 59°19' E 018°10'0 0.0
2016-Aug-22 19:33N 59°19' E 018°10'0 0.0
2016-Aug-22 18:33N 59°19' E 018°10'0 0.0
2016-Aug-22 17:33N 59°19' E 018°10'0 0.0
2016-Aug-22 16:31N 59°19' E 018°10'0 0.0
2016-Aug-22 14:20N 59°19' E 018°10'1 1.1
2016-Aug-22 13:31N 59°19' E 018°08'14 3.2
2016-Aug-22 09:17N 59°23' E 018°33'1215.7
2016-Aug-22 08:33N 59°20' E 018°12'1 1.2
2016-Aug-22 07:28N 59°19' E 018°10'0 0.0
2016-Aug-22 06:31N 59°19' E 018°10'0 0.0
2016-Aug-22 05:33N 59°19' E 018°10'0 0.0
2016-Aug-22 04:33N 59°19' E 018°10'0 0.0
2016-Aug-22 03:33N 59°19' E 018°10'0 0.0
2016-Aug-22 02:33N 59°19' E 018°10'0 0.0
2016-Aug-22 01:33N 59°19' E 018°10'0 0.0
2016-Aug-22 00:33N 59°19' E 018°10'0 0.0
2016-Aug-21 23:33N 59°19' E 018°10'0 0.0
2016-Aug-21 22:33N 59°19' E 018°10'0 0.0
2016-Aug-21 21:33N 59°19' E 018°10'0 0.0
2016-Aug-21 20:33N 59°19' E 018°10'0 0.0
2016-Aug-21 19:27N 59°19' E 018°10'0 0.0
2016-Aug-21 18:28N 59°19' E 018°10'2 2.1
2016-Aug-21 17:33N 59°19' E 018°06'6 5.9
2016-Aug-21 16:33N 59°18' E 017°55'13 9.8
2016-Aug-21 15:11N 59°24' E 017°31'811.9
2016-Aug-21 14:33N 59°26' E 017°45'1010.3
2016-Aug-21 13:33N 59°19' E 018°01'1 0.9
2016-Aug-21 12:33N 59°19' E 018°02'4 3.9
2016-Aug-21 11:33N 59°19' E 018°10'3 2.7
2016-Aug-21 10:33N 59°20' E 018°05'  
2016-Aug-16 07:28N 59°22' E 018°07'17 1.2
2016-Aug-15 17:33N 59°26' E 017°34'  
Track history (hours):
 
Tides and Currents Weather Stations Pressure Air Temp Water Temp Dewpoint Dewpoint Depression Visibility Wind Speed Wind Dir Waves Ship Positions

Polis 139 9970

Last reported at 2016-Aug-25 07:24 UTC. Time now 2016-Aug-25 09:48 UTC.
Position N 59°20' E 018°05'.

Length 16 m.

Type: Law enforcement. MMSI: 265565250.

Date/timePositionNaut miles runAvg speedWind from/ knotsBaromVisibWave heightAir tempDewpointWater temp
2016-Aug-25 07:24N 59°20' E 018°05'0 0.1
2016-Aug-25 06:23N 59°20' E 018°04'0 0.0
2016-Aug-25 04:33N 59°20' E 018°04'0 0.0
2016-Aug-25 03:34N 59°20' E 018°05'0 0.1
2016-Aug-25 02:34N 59°20' E 018°05'0 0.1
2016-Aug-25 01:33N 59°20' E 018°05'0 0.0
2016-Aug-25 00:33N 59°20' E 018°05'0 0.0
2016-Aug-24 23:33N 59°20' E 018°04'0 0.0
2016-Aug-24 22:33N 59°20' E 018°05'0 0.0
2016-Aug-24 21:33N 59°20' E 018°05'0 0.0
2016-Aug-24 20:33N 59°20' E 018°04'0 0.1
2016-Aug-24 19:33N 59°20' E 018°05'0 0.0
2016-Aug-24 18:33N 59°20' E 018°05'0 0.0
2016-Aug-24 17:33N 59°20' E 018°05'0 0.0
2016-Aug-24 16:33N 59°20' E 018°05'0 0.0
2016-Aug-24 15:33N 59°20' E 018°05'0 0.0
2016-Aug-24 14:33N 59°20' E 018°05'0 0.0
2016-Aug-24 13:33N 59°20' E 018°05'0 0.0
2016-Aug-24 12:33N 59°20' E 018°05'0 0.0
2016-Aug-24 11:33N 59°20' E 018°05'0 0.0
2016-Aug-24 10:34N 59°20' E 018°05'0 0.0
2016-Aug-24 09:33N 59°20' E 018°05'0 0.0
2016-Aug-24 08:33N 59°20' E 018°04'0 0.1
2016-Aug-24 07:33N 59°20' E 018°05'0 0.2
2016-Aug-24 06:33N 59°20' E 018°05'0 0.0
2016-Aug-24 04:33N 59°20' E 018°05'0 0.1
2016-Aug-24 03:33N 59°20' E 018°05'0 0.0
2016-Aug-24 02:33N 59°20' E 018°05'0 0.0
2016-Aug-24 01:33N 59°20' E 018°05'0 0.0
2016-Aug-24 00:33N 59°20' E 018°05'0 0.1
2016-Aug-23 23:33N 59°20' E 018°05'2 1.8
2016-Aug-23 22:33N 59°19' E 018°08'1 0.9
2016-Aug-23 21:33N 59°19' E 018°10'0 0.0
2016-Aug-23 20:33N 59°19' E 018°10'0 0.0
2016-Aug-23 19:33N 59°19' E 018°10'0 0.0
2016-Aug-23 18:33N 59°19' E 018°10'0 0.0
2016-Aug-23 17:33N 59°19' E 018°10'0 0.0
2016-Aug-23 16:33N 59°19' E 018°10'0 0.0
2016-Aug-23 15:33N 59°19' E 018°10'0 0.0
2016-Aug-23 14:33N 59°19' E 018°10'0 0.0
2016-Aug-23 13:33N 59°19' E 018°10'0 0.0
2016-Aug-23 12:33N 59°19' E 018°10'0 0.0
2016-Aug-23 11:32N 59°19' E 018°10'0 0.0
2016-Aug-23 10:33N 59°19' E 018°10'0 0.0
2016-Aug-23 09:33N 59°19' E 018°10'0 0.0
2016-Aug-23 08:33N 59°19' E 018°10'0 0.0
2016-Aug-23 07:33N 59°19' E 018°10'0 0.0
2016-Aug-23 06:33N 59°19' E 018°10'0 0.0
2016-Aug-23 05:33N 59°19' E 018°10'0 0.0
2016-Aug-23 04:33N 59°19' E 018°10'0 0.0
2016-Aug-23 03:33N 59°19' E 018°10'0 0.0
2016-Aug-23 02:33N 59°19' E 018°10'0 0.0
2016-Aug-23 01:33N 59°19' E 018°10'0 0.0
2016-Aug-23 00:33N 59°19' E 018°10'0 0.0
2016-Aug-22 23:33N 59°19' E 018°10'0 0.0
2016-Aug-22 22:33N 59°19' E 018°10'0 0.0
2016-Aug-22 21:33N 59°19' E 018°10'0 0.0
2016-Aug-22 20:33N 59°19' E 018°10'0 0.0
2016-Aug-22 19:33N 59°19' E 018°10'0 0.0
2016-Aug-22 18:33N 59°19' E 018°10'0 0.0
2016-Aug-22 17:33N 59°19' E 018°10'0 0.0
2016-Aug-22 16:31N 59°19' E 018°10'0 0.0
2016-Aug-22 14:20N 59°19' E 018°10'1 1.1
2016-Aug-22 13:31N 59°19' E 018°08'14 3.2
2016-Aug-22 09:17N 59°23' E 018°33'1215.7
2016-Aug-22 08:33N 59°20' E 018°12'1 1.2
2016-Aug-22 07:28N 59°19' E 018°10'0 0.0
2016-Aug-22 06:31N 59°19' E 018°10'0 0.0
2016-Aug-22 05:33N 59°19' E 018°10'0 0.0
2016-Aug-22 04:33N 59°19' E 018°10'0 0.0
2016-Aug-22 03:33N 59°19' E 018°10'0 0.0
2016-Aug-22 02:33N 59°19' E 018°10'0 0.0
2016-Aug-22 01:33N 59°19' E 018°10'0 0.0
2016-Aug-22 00:33N 59°19' E 018°10'0 0.0
2016-Aug-21 23:33N 59°19' E 018°10'0 0.0
2016-Aug-21 22:33N 59°19' E 018°10'0 0.0
2016-Aug-21 21:33N 59°19' E 018°10'0 0.0
2016-Aug-21 20:33N 59°19' E 018°10'0 0.0
2016-Aug-21 19:27N 59°19' E 018°10'0 0.0
2016-Aug-21 18:28N 59°19' E 018°10'2 2.1
2016-Aug-21 17:33N 59°19' E 018°06'6 5.9
2016-Aug-21 16:33N 59°18' E 017°55'13 9.8
2016-Aug-21 15:11N 59°24' E 017°31'811.9
2016-Aug-21 14:33N 59°26' E 017°45'1010.3
2016-Aug-21 13:33N 59°19' E 018°01'1 0.9
2016-Aug-21 12:33N 59°19' E 018°02'4 3.9
2016-Aug-21 11:33N 59°19' E 018°10'3 2.7
2016-Aug-21 10:33N 59°20' E 018°05'  
2016-Aug-16 07:28N 59°22' E 018°07'17 1.2
2016-Aug-15 17:33N 59°26' E 017°34'  

Dump ship's entire track history